Time;durP1;ratioP1;P1;durP2;ratioP2;P2;SDS_P1;SDS_P2;PMS_P1;PMS_P2;Temp;Humidity;BMP_temperature;BMP_pressure;BME280_temperature;BME280_humidity;BME280_pressure;Samples;Min_cycle;Max_cycle;Signal;HPM_P1;HPM_P2
2021/12/05 00:24:42;;;;;;;11.48;5.60;;;3.70;99.90;;;;;;5054032;28;20148;-79
2021/12/05 00:27:17;;;;;;;12.52;6.47;;;3.70;99.90;;;;;;5054337;28;20464;-80
2021/12/05 00:32:21;;;;;;;11.95;5.38;;;3.80;99.90;;;;;;5076252;28;20056;-79
2021/12/05 00:52:13;;;;;;;11.10;5.95;;;3.60;99.90;;;;;;5065191;28;20127;-79
2021/12/05 00:59:35;;;;;;;10.95;6.45;;;3.80;99.90;;;;;;5075757;28;20493;-79
2021/12/05 01:02:18;;;;;;;12.35;5.82;;;3.60;99.90;;;;;;5076185;28;20072;-79
2021/12/05 01:07:59;;;;;;;10.80;5.35;;;3.60;99.90;;;;;;5075695;28;20516;-79
2021/12/05 01:10:15;;;;;;;10.80;6.10;;;3.70;99.90;;;;;;5073728;28;20048;-79
2021/12/05 01:15:32;;;;;;;9.77;4.93;;;3.70;99.90;;;;;;5067134;28;20049;-79
2021/12/05 01:18:11;;;;;;;12.32;5.65;;;3.70;99.90;;;;;;5075531;28;20467;-79
2021/12/05 01:20:43;;;;;;;9.68;5.18;;;3.60;99.90;;;;;;5075434;28;20045;-79
2021/12/05 01:24:22;;;;;;;8.23;4.82;;;3.60;99.90;;;;;;5075328;28;20393;-79
2021/12/05 01:26:29;;;;;;;8.98;4.47;;;3.60;99.90;;;;;;5070199;28;20052;-79
2021/12/05 01:34:10;;;;;;;15.88;4.75;;;3.60;99.90;;;;;;5075472;28;20451;-79
2021/12/05 01:39:37;;;;;;;9.05;5.15;;;3.60;99.90;;;;;;5075121;28;20132;-78
2021/12/05 02:34:09;;;;;;;15.98;8.18;;;3.70;99.90;;;;;;5073691;28;20374;-80
2021/12/05 02:41:42;;;;;;;23.48;9.60;;;3.80;99.90;;;;;;5073917;28;20409;-79
2021/12/05 02:44:22;;;;;;;24.80;10.15;;;3.80;99.90;;;;;;5073142;28;20123;-79
2021/12/05 02:47:06;;;;;;;19.48;10.25;;;3.80;99.90;;;;;;5072576;28;20101;-80
2021/12/05 02:49:35;;;;;;;24.33;9.18;;;3.80;99.90;;;;;;5074613;28;20127;-80
2021/12/05 02:52:06;;;;;;;16.25;10.02;;;3.80;99.90;;;;;;5073360;28;20500;-79
2021/12/05 02:54:39;;;;;;;22.00;10.13;;;3.80;99.90;;;;;;5073800;28;20119;-79
2021/12/05 02:57:06;;;;;;;18.58;10.07;;;4.20;99.90;;;;;;5074251;28;20052;-79
2021/12/05 03:02:12;;;;;;;24.70;11.13;;;3.80;99.90;;;;;;5074003;28;20056;-79
2021/12/05 03:04:43;;;;;;;22.52;10.45;;;4.00;99.90;;;;;;5073682;28;20112;-79
2021/12/05 03:07:10;;;;;;;21.77;9.80;;;3.80;99.90;;;;;;5074156;28;20080;-79
2021/12/05 03:09:38;;;;;;;23.33;10.30;;;3.80;99.90;;;;;;5073264;28;20492;-79
2021/12/05 03:12:09;;;;;;;20.13;10.32;;;3.80;99.90;;;;;;5073465;28;20052;-79
2021/12/05 03:14:35;;;;;;;22.52;10.50;;;3.80;99.90;;;;;;5056640;28;20052;-79
2021/12/05 03:17:00;;;;;;;21.92;11.82;;;3.80;99.90;;;;;;5073413;28;20362;-79
2021/12/05 03:19:27;;;;;;;20.08;10.57;;;3.80;99.90;;;;;;5073208;28;20052;-80
2021/12/05 03:21:53;;;;;;;23.67;10.70;;;3.80;99.90;;;;;;5073651;28;20209;-79
2021/12/05 03:24:23;;;;;;;19.65;9.95;;;3.80;99.90;;;;;;5073319;28;20040;-79
2021/12/05 03:26:52;;;;;;;23.00;10.82;;;3.80;99.90;;;;;;5073916;28;20110;-80
2021/12/05 03:29:19;;;;;;;19.58;10.25;;;3.80;99.90;;;;;;5073409;28;20105;-79
2021/12/05 03:31:47;;;;;;;19.35;9.20;;;3.80;99.90;;;;;;5073728;28;20080;-79
2021/12/05 03:34:15;;;;;;;21.27;11.18;;;3.80;99.90;;;;;;5077530;28;20167;-78
2021/12/05 03:36:46;;;;;;;18.33;9.77;;;3.70;99.90;;;;;;5077449;28;20048;-78
2021/12/05 03:39:13;;;;;;;18.20;9.45;;;3.80;99.90;;;;;;5077993;28;20044;-79
2021/12/05 03:41:40;;;;;;;19.20;8.48;;;3.70;99.90;;;;;;5077092;28;20516;-78
2021/12/05 03:44:08;;;;;;;22.92;11.10;;;3.80;99.90;;;;;;5059613;28;20060;-79
2021/12/05 03:46:34;;;;;;;18.67;8.02;;;3.80;99.90;;;;;;5076299;28;20131;-78
2021/12/05 03:49:05;;;;;;;13.90;8.00;;;3.70;99.90;;;;;;5077733;28;20037;-78
2021/12/05 03:51:34;;;;;;;23.88;8.52;;;3.70;99.90;;;;;;5076847;28;20041;-79
2021/12/05 03:54:00;;;;;;;16.45;7.75;;;3.70;99.90;;;;;;5077042;28;20048;-78
2021/12/05 03:56:26;;;;;;;14.43;7.72;;;3.70;99.90;;;;;;5076899;28;20079;-78
2021/12/05 03:58:53;;;;;;;13.57;6.55;;;3.70;99.90;;;;;;5077804;28;20129;-78
2021/12/05 04:01:19;;;;;;;22.00;7.75;;;3.70;99.90;;;;;;5075955;28;20054;-79
2021/12/05 04:03:48;;;;;;;13.90;7.47;;;3.60;99.90;;;;;;5076802;28;20044;-79
2021/12/05 04:06:16;;;;;;;19.05;8.40;;;4.40;99.90;;;;;;5076896;28;20580;-78
2021/12/05 04:08:43;;;;;;;13.68;7.18;;;3.60;99.90;;;;;;5076719;28;20041;-78
2021/12/05 04:11:17;;;;;;;13.45;6.40;;;3.60;99.90;;;;;;5076657;28;20123;-79
2021/12/05 04:13:44;;;;;;;15.75;7.03;;;3.60;99.90;;;;;;5076442;28;20481;-79
2021/12/05 04:16:10;;;;;;;13.93;6.45;;;4.30;99.90;;;;;;5077004;28;20503;-78
2021/12/05 04:18:36;;;;;;;11.63;5.35;;;3.50;99.90;;;;;;5077100;28;20088;-78
2021/12/05 04:21:03;;;;;;;11.52;5.45;;;3.50;99.90;;;;;;5076513;28;20087;-77
2021/12/05 04:23:30;;;;;;;11.90;6.00;;;3.60;99.90;;;;;;5076536;28;20136;-79
2021/12/05 04:25:56;;;;;;;13.57;5.68;;;3.50;99.90;;;;;;5076488;28;20452;-79
2021/12/05 04:28:23;;;;;;;12.88;5.25;;;3.40;99.90;;;;;;5075155;28;20078;-77
2021/12/05 04:30:49;;;;;;;12.52;4.35;;;3.40;99.90;;;;;;5076282;28;20045;-78
2021/12/05 04:33:15;;;;;;;11.98;5.85;;;3.70;99.90;;;;;;5076425;28;20127;-79
2021/12/05 04:35:42;;;;;;;14.18;5.93;;;3.70;99.90;;;;;;5075930;28;20385;-76
2021/12/05 04:38:09;;;;;;;13.57;5.10;;;3.70;99.90;;;;;;5076245;28;20071;-79
2021/12/05 04:40:34;;;;;;;12.23;5.85;;;3.40;99.90;;;;;;5076187;28;20055;-78
2021/12/05 04:43:01;;;;;;;17.65;5.95;;;3.40;99.90;;;;;;5075886;28;20040;-79
2021/12/05 04:45:32;;;;;;;12.02;5.97;;;3.30;99.90;;;;;;5076180;28;20052;-79
2021/12/05 04:47:59;;;;;;;16.52;5.70;;;3.30;99.90;;;;;;5075172;28;20088;-78
2021/12/05 04:50:26;;;;;;;12.63;5.10;;;4.20;99.90;;;;;;5075913;28;20506;-79
2021/12/05 04:52:54;;;;;;;14.27;5.88;;;3.30;99.90;;;;;;5075807;28;20044;-79
2021/12/05 04:55:19;;;;;;;16.95;5.72;;;3.90;99.90;;;;;;5076022;28;20048;-79
2021/12/05 04:57:46;;;;;;;12.43;5.60;;;3.20;99.90;;;;;;5076288;28;20143;-78
2021/12/05 05:00:18;;;;;;;16.42;6.95;;;3.20;99.90;;;;;;5074735;28;20051;-79
2021/12/05 05:02:44;;;;;;;12.20;5.50;;;3.20;99.90;;;;;;5075910;28;20135;-79
2021/12/05 05:05:12;;;;;;;11.90;5.00;;;3.30;99.90;;;;;;5074644;28;20048;-79
2021/12/05 05:07:40;;;;;;;14.48;5.60;;;3.10;99.90;;;;;;5076052;28;20040;-79
2021/12/05 05:10:11;;;;;;;13.38;5.80;;;3.40;99.90;;;;;;5075625;28;20362;-79
2021/12/05 05:12:38;;;;;;;13.15;5.65;;;3.10;99.90;;;;;;5076498;28;20377;-80
2021/12/05 05:15:04;;;;;;;10.57;5.07;;;3.10;99.90;;;;;;5076117;28;20052;-78
2021/12/05 05:17:30;;;;;;;10.60;5.10;;;3.10;99.90;;;;;;5074327;28;20051;-79
2021/12/05 05:20:01;;;;;;;14.90;5.95;;;3.10;99.90;;;;;;5075927;28;20131;-77
2021/12/05 05:46:12;;;;;;;13.20;4.78;;;3.10;99.90;;;;;;5074848;28;20354;-78
2021/12/05 05:51:30;;;;;;;10.07;4.30;;;3.10;99.90;;;;;;5068867;28;20055;-79
2021/12/05 05:53:56;;;;;;;13.07;4.65;;;3.10;99.90;;;;;;5077488;28;20048;-79
2021/12/05 05:56:26;;;;;;;12.95;5.47;;;3.30;99.90;;;;;;5074045;28;20043;-79
2021/12/05 05:58:58;;;;;;;13.77;5.40;;;3.10;99.90;;;;;;5075485;28;20132;-79
2021/12/05 06:04:19;;;;;;;13.95;6.00;;;3.00;99.90;;;;;;5054894;28;20056;-79
2021/12/05 06:06:46;;;;;;;12.20;4.50;;;3.00;99.90;;;;;;5073637;28;20048;-78
2021/12/05 06:09:12;;;;;;;16.85;4.75;;;3.00;99.90;;;;;;5073544;28;20064;-79
2021/12/05 06:11:37;;;;;;;16.67;4.97;;;3.00;99.90;;;;;;5074997;28;20458;-79
2021/12/05 06:14:04;;;;;;;15.57;4.90;;;3.00;99.90;;;;;;5075298;28;20135;-79
2021/12/05 06:16:31;;;;;;;12.77;5.10;;;3.00;99.90;;;;;;5074389;28;20071;-79
2021/12/05 06:18:56;;;;;;;11.73;4.75;;;3.00;99.90;;;;;;5074227;28;20091;-79
2021/12/05 06:21:23;;;;;;;10.52;4.82;;;3.10;99.90;;;;;;5074840;28;20087;-77
2021/12/05 06:23:49;;;;;;;14.40;5.20;;;3.10;99.90;;;;;;5074177;28;20128;-79
2021/12/05 06:26:21;;;;;;;14.07;4.90;;;3.10;99.90;;;;;;5074185;28;20166;-80
2021/12/05 06:29:02;;;;;;;16.77;5.60;;;3.10;99.90;;;;;;5074642;28;20397;-78
2021/12/05 06:31:47;;;;;;;16.55;5.82;;;3.10;99.90;;;;;;5074913;28;20040;-80
2021/12/05 06:37:11;;;;;;;17.17;6.68;;;3.10;99.90;;;;;;5074841;28;20427;-79
2021/12/05 06:40:04;;;;;;;16.73;7.07;;;3.10;99.90;;;;;;5073951;28;20174;-80
2021/12/05 06:47:55;;;;;;;16.50;6.47;;;3.10;99.90;;;;;;5073880;28;20055;-80
2021/12/05 06:50:21;;;;;;;16.33;6.50;;;3.20;99.90;;;;;;5073933;28;20040;-80
2021/12/05 06:52:47;;;;;;;19.83;7.25;;;3.80;99.90;;;;;;5073849;28;20052;-79
2021/12/05 06:55:16;;;;;;;15.68;6.60;;;3.70;99.90;;;;;;5073726;28;20381;-79
2021/12/05 06:57:43;;;;;;;16.50;6.43;;;3.30;99.90;;;;;;5072396;28;20048;-80
2021/12/05 07:00:16;;;;;;;17.58;7.18;;;3.50;99.90;;;;;;5072985;28;20051;-80
2021/12/05 07:02:42;;;;;;;16.52;6.57;;;3.30;99.90;;;;;;5074552;28;20127;-80
2021/12/05 07:05:34;;;;;;;20.13;8.45;;;3.30;99.90;;;;;;5073696;28;20457;-80
2021/12/05 07:07:59;;;;;;;15.25;6.78;;;3.40;99.90;;;;;;5073747;28;20056;-80
2021/12/05 07:10:25;;;;;;;15.07;6.70;;;3.40;99.90;;;;;;5073119;28;20393;-80
2021/12/05 07:13:32;;;;;;;13.27;7.18;;;3.40;99.90;;;;;;5073515;28;20053;-80
2021/12/05 07:15:51;;;;;;;18.20;6.65;;;3.40;99.90;;;;;;5073089;28;20052;-78
2021/12/05 07:21:25;;;;;;;15.70;6.75;;;4.20;99.90;;;;;;5074008;28;20044;-80
2021/12/05 07:26:18;;;;;;;19.00;7.88;;;3.50;99.90;;;;;;5073492;28;20059;-80
2021/12/05 07:42:40;;;;;;;16.40;6.65;;;3.50;99.90;;;;;;5073808;28;20385;-80
2021/12/05 07:45:09;;;;;;;16.08;7.13;;;3.50;99.90;;;;;;5072348;28;20127;-80
2021/12/05 07:47:38;;;;;;;17.10;8.18;;;3.50;99.90;;;;;;5072828;28;20560;-82
2021/12/05 07:50:08;;;;;;;19.25;7.68;;;3.50;99.90;;;;;;5072071;28;20110;-80
2021/12/05 07:52:37;;;;;;;18.33;8.10;;;3.60;99.90;;;;;;5055980;28;20092;-82
2021/12/05 07:55:19;;;;;;;16.98;6.80;;;3.60;99.90;;;;;;5072886;28;20053;-82
2021/12/05 07:58:05;;;;;;;16.02;7.13;;;3.60;99.90;;;;;;5072039;28;20098;-82
2021/12/05 08:00:40;;;;;;;20.83;6.95;;;3.60;99.90;;;;;;5072322;28;20052;-82
2021/12/05 08:16:49;;;;;;;16.50;7.97;;;3.70;99.90;;;;;;5057585;28;20045;-81
2021/12/05 08:19:16;;;;;;;15.95;7.25;;;4.00;99.90;;;;;;5074113;28;20048;-81
2021/12/05 08:21:42;;;;;;;17.05;7.30;;;3.70;99.90;;;;;;5076646;28;20105;-81
2021/12/05 08:24:07;;;;;;;18.13;7.97;;;3.80;99.90;;;;;;5058911;28;20518;-81
2021/12/05 08:26:35;;;;;;;16.25;7.32;;;3.70;99.90;;;;;;5075057;28;20088;-81
2021/12/05 08:29:13;;;;;;;12.82;6.82;;;4.10;99.90;;;;;;5075189;28;20052;-81
2021/12/05 08:37:18;;;;;;;20.50;7.95;;;3.90;99.90;;;;;;5076576;28;20388;-81
2021/12/05 09:21:59;;;;;;;12.27;6.15;;;4.10;99.90;;;;;;5077167;28;20401;-77
2021/12/05 09:30:26;;;;;;;15.87;6.90;;;4.10;99.90;;;;;;5074902;28;20091;-78
2021/12/05 09:38:50;;;;;;;12.55;6.45;;;4.10;99.90;;;;;;5075012;28;20101;-78
2021/12/05 10:06:45;;;;;;;10.70;5.97;;;4.40;99.90;;;;;;5074752;28;20052;-77
2021/12/05 10:17:37;;;;;;;12.85;6.20;;;4.90;99.90;;;;;;5074396;28;20052;-77
2021/12/05 10:33:58;;;;;;;13.82;6.05;;;5.30;99.90;;;;;;5074185;28;20055;-77
2021/12/05 10:36:27;;;;;;;10.15;5.60;;;5.00;99.90;;;;;;5073928;28;20485;-78
2021/12/05 10:38:59;;;;;;;9.60;5.30;;;5.00;99.90;;;;;;5073872;28;20127;-77
2021/12/05 10:44:08;;;;;;;11.65;5.20;;;5.00;99.90;;;;;;5073001;28;20090;-77
2021/12/05 10:46:36;;;;;;;9.13;5.20;;;5.00;99.90;;;;;;5074219;28;20044;-78
2021/12/05 10:49:09;;;;;;;12.52;5.20;;;5.00;99.90;;;;;;5072777;28;20131;-77
2021/12/05 10:51:50;;;;;;;11.10;5.30;;;5.00;99.90;;;;;;5073759;28;20048;-77
2021/12/05 10:54:23;;;;;;;10.18;4.63;;;5.00;99.90;;;;;;5073738;28;20078;-77
2021/12/05 10:56:56;;;;;;;14.18;6.00;;;5.30;99.90;;;;;;5056516;28;20048;-77
2021/12/05 10:59:25;;;;;;;9.60;5.20;;;5.10;99.90;;;;;;5074283;28;20052;-78
2021/12/05 11:01:58;;;;;;;11.63;5.30;;;5.10;99.90;;;;;;5073414;28;20048;-77
2021/12/05 11:04:30;;;;;;;9.38;4.22;;;5.20;99.90;;;;;;5072674;28;20064;-78
2021/12/05 11:07:13;;;;;;;8.77;4.70;;;5.20;99.90;;;;;;5073444;28;20104;-76
2021/12/05 11:09:44;;;;;;;10.68;4.68;;;5.20;99.90;;;;;;5072670;28;20045;-77
2021/12/05 11:12:16;;;;;;;10.32;5.40;;;5.20;99.90;;;;;;5073505;28;20070;-77
2021/12/05 11:14:48;;;;;;;9.85;5.30;;;5.20;99.90;;;;;;5073212;28;20489;-77
2021/12/05 11:17:21;;;;;;;10.60;4.85;;;5.20;99.90;;;;;;5074193;28;20049;-76
2021/12/05 11:19:48;;;;;;;11.07;5.28;;;5.30;99.90;;;;;;5073476;28;20064;-76
2021/12/05 11:22:24;;;;;;;7.43;4.65;;;5.30;99.90;;;;;;5073481;28;20518;-77
2021/12/05 11:25:02;;;;;;;9.90;5.00;;;5.30;99.90;;;;;;5073462;28;20123;-78
2021/12/05 11:27:36;;;;;;;8.30;4.22;;;5.40;99.90;;;;;;5073417;28;20512;-76
2021/12/05 11:30:17;;;;;;;9.43;4.55;;;5.30;99.90;;;;;;5074162;28;20075;-77
2021/12/05 11:32:51;;;;;;;11.38;4.10;;;5.40;99.90;;;;;;5073265;28;20489;-78
2021/12/05 11:35:30;;;;;;;8.57;4.47;;;5.40;99.90;;;;;;5073601;28;20405;-77
2021/12/05 11:38:05;;;;;;;6.57;4.38;;;5.50;99.90;;;;;;5074092;28;20059;-77
2021/12/05 11:40:44;;;;;;;6.97;4.22;;;5.60;99.90;;;;;;5073629;28;20048;-80
2021/12/05 11:43:13;;;;;;;9.63;4.22;;;5.60;99.90;;;;;;5072302;28;20053;-83
2021/12/05 11:46:02;;;;;;;9.25;4.25;;;5.70;99.90;;;;;;5073270;28;20084;-80
2021/12/05 11:48:29;;;;;;;6.45;4.15;;;5.70;99.90;;;;;;5073093;28;20048;-77
2021/12/05 11:50:57;;;;;;;7.88;4.35;;;5.70;99.90;;;;;;5073539;28;20500;-79
2021/12/05 11:53:45;;;;;;;8.02;3.90;;;5.70;99.90;;;;;;5074373;28;20049;-79
2021/12/05 11:56:20;;;;;;;10.65;4.20;;;5.70;99.90;;;;;;5076246;28;20120;-79
2021/12/05 11:59:04;;;;;;;8.23;3.80;;;5.70;99.90;;;;;;5075505;28;20052;-80
2021/12/05 12:01:36;;;;;;;8.32;4.03;;;5.60;99.90;;;;;;5077587;28;20377;-80
2021/12/05 12:04:04;;;;;;;8.98;4.55;;;5.60;99.90;;;;;;5076982;28;20095;-78
2021/12/05 12:06:30;;;;;;;7.28;4.00;;;5.60;99.90;;;;;;5076009;28;20052;-78
2021/12/05 12:08:56;;;;;;;5.22;3.40;;;5.50;99.90;;;;;;5077708;28;20437;-78
2021/12/05 12:11:23;;;;;;;7.88;4.18;;;5.60;99.90;;;;;;5076469;28;20500;-78
2021/12/05 12:13:50;;;;;;;6.50;3.35;;;5.50;99.90;;;;;;5076615;28;20052;-77
2021/12/05 12:16:16;;;;;;;6.43;3.17;;;5.50;99.90;;;;;;5077237;28;20087;-78
2021/12/05 12:18:47;;;;;;;5.35;3.30;;;5.50;99.90;;;;;;5076386;28;20127;-77
2021/12/05 12:21:26;;;;;;;5.70;3.30;;;5.50;99.90;;;;;;5077426;28;20119;-77
2021/12/05 12:23:55;;;;;;;7.93;3.50;;;5.50;99.90;;;;;;5076683;28;20421;-77
2021/12/05 12:26:22;;;;;;;6.35;3.10;;;5.50;99.90;;;;;;5076550;28;20048;-80
2021/12/05 12:28:48;;;;;;;7.90;3.42;;;5.50;99.90;;;;;;5076358;28;20041;-78
2021/12/05 12:31:36;;;;;;;14.32;3.80;;;5.60;99.90;;;;;;5075311;28;20409;-78
2021/12/05 12:34:13;;;;;;;6.55;3.65;;;5.50;99.90;;;;;;5077229;28;20045;-76
2021/12/05 12:36:40;;;;;;;;;;;5.50;99.90;;;;;;5076892;28;20131;-77
2021/12/05 12:39:35;;;;;;;5.13;3.22;;;5.50;99.90;;;;;;5076886;28;19920;-82
2021/12/05 12:42:23;;;;;;;5.45;3.38;;;5.40;99.90;;;;;;5076639;28;20439;-80
2021/12/05 12:45:18;;;;;;;6.25;4.03;;;5.50;99.90;;;;;;5078071;28;20385;-81
2021/12/05 12:47:58;;;;;;;8.27;3.85;;;5.40;99.90;;;;;;5077113;28;20151;-79
2021/12/05 12:50:34;;;;;;;6.18;3.50;;;5.40;99.90;;;;;;5076859;28;20113;-78
2021/12/05 12:53:17;;;;;;;6.20;3.60;;;5.50;99.90;;;;;;5075935;28;20064;-78
2021/12/05 12:55:54;;;;;;;7.25;3.28;;;5.50;99.90;;;;;;5076048;28;20509;-81
2021/12/05 12:58:36;;;;;;;6.78;3.55;;;5.60;99.90;;;;;;5073753;28;20056;-84
2021/12/05 13:01:20;;;;;;;5.32;3.00;;;5.50;99.90;;;;;;5076156;28;20045;-85
2021/12/05 13:12:41;;;;;;;7.28;3.63;;;5.60;99.90;;;;;;5075773;28;20477;-81
2021/12/05 13:15:28;;;;;;;5.45;3.70;;;5.60;99.90;;;;;;5075739;28;20083;-82
2021/12/05 13:17:57;;;;;;;5.60;3.28;;;5.70;99.90;;;;;;5075502;28;20139;-80
2021/12/05 13:20:29;;;;;;;6.22;3.28;;;5.70;99.90;;;;;;5075533;28;20048;-80
2021/12/05 13:23:15;;;;;;;7.50;3.50;;;5.70;99.90;;;;;;5058189;28;20060;-79
2021/12/05 13:26:08;;;;;;;5.78;3.58;;;5.80;99.90;;;;;;5076033;28;20052;-76
2021/12/05 13:28:39;;;;;;;7.45;3.25;;;5.70;99.90;;;;;;5074198;28;20048;-79
2021/12/05 13:31:27;;;;;;;6.75;3.95;;;5.70;99.90;;;;;;5074310;28;20481;-78
2021/12/05 13:34:18;;;;;;;6.38;3.30;;;5.70;99.90;;;;;;5074299;28;20052;-79
2021/12/05 13:36:47;;;;;;;6.68;3.67;;;5.70;99.90;;;;;;5076069;28;20159;-78
2021/12/05 13:39:37;;;;;;;5.80;3.30;;;5.80;99.90;;;;;;5075150;28;20040;-78
2021/12/05 13:42:22;;;;;;;5.47;3.75;;;5.80;99.90;;;;;;5075115;28;20149;-76
2021/12/05 13:45:00;;;;;;;5.00;3.15;;;5.80;99.90;;;;;;5074751;28;20513;-76
2021/12/05 13:47:31;;;;;;;7.15;3.15;;;5.80;99.90;;;;;;5074932;28;20044;-75
2021/12/05 13:50:21;;;;;;;5.75;3.47;;;5.80;99.90;;;;;;5074939;28;20055;-76
2021/12/05 13:53:02;;;;;;;6.07;3.58;;;5.80;99.90;;;;;;5063954;28;20052;-77
2021/12/05 13:55:58;;;;;;;5.38;3.45;;;5.70;99.90;;;;;;5074832;28;20048;-76
2021/12/05 13:58:38;;;;;;;9.10;3.10;;;5.70;99.90;;;;;;5074800;28;20064;-76
2021/12/05 14:01:15;;;;;;;6.97;3.60;;;5.60;99.90;;;;;;5074235;28;20679;-76
2021/12/05 14:03:52;;;;;;;8.98;3.70;;;5.60;99.90;;;;;;5075199;28;20049;-75
2021/12/05 14:06:32;;;;;;;4.95;3.47;;;5.60;99.90;;;;;;5074495;28;20474;-76
2021/12/05 14:09:04;;;;;;;7.43;4.10;;;5.60;99.90;;;;;;5073558;28;20071;-77
2021/12/05 14:11:31;;;;;;;6.50;4.43;;;5.50;99.90;;;;;;5074447;28;20496;-76
2021/12/05 14:13:56;;;;;;;9.10;4.55;;;5.50;99.90;;;;;;5056884;28;20056;-77
2021/12/05 14:16:35;;;;;;;9.85;4.80;;;5.60;99.90;;;;;;5074165;28;20052;-76
2021/12/05 14:19:05;;;;;;;7.63;4.18;;;5.50;99.90;;;;;;5075122;28;20052;-77
2021/12/05 14:21:32;;;;;;;6.85;4.15;;;5.60;99.90;;;;;;5057631;28;20056;-75
2021/12/05 14:24:00;;;;;;;6.47;4.30;;;5.60;99.90;;;;;;5074652;28;20040;-74
2021/12/05 14:26:28;;;;;;;7.60;4.32;;;5.50;99.90;;;;;;5074807;28;20080;-76
2021/12/05 14:29:01;;;;;;;6.90;3.70;;;5.50;99.90;;;;;;5074088;28;20048;-76
2021/12/05 14:31:33;;;;;;;6.15;3.47;;;5.50;99.90;;;;;;5074807;28;20063;-77
2021/12/05 14:33:59;;;;;;;7.75;3.97;;;5.50;99.90;;;;;;5074098;28;20137;-77
2021/12/05 14:36:31;;;;;;;9.57;4.20;;;5.50;99.90;;;;;;5074056;28;20080;-78
2021/12/05 14:39:09;;;;;;;7.75;3.90;;;5.50;99.90;;;;;;5074470;28;20053;-77
2021/12/05 14:41:36;;;;;;;11.38;4.50;;;5.50;99.90;;;;;;5072949;28;20379;-77
2021/12/05 14:44:02;;;;;;;7.40;4.40;;;5.40;99.90;;;;;;5074591;28;20048;-77
2021/12/05 14:46:28;;;;;;;6.68;3.80;;;5.40;99.90;;;;;;5074082;28;20040;-76
2021/12/05 14:49:04;;;;;;;8.95;4.25;;;5.40;99.90;;;;;;5072632;28;20102;-77
2021/12/05 14:51:34;;;;;;;5.60;3.80;;;5.50;99.90;;;;;;5073418;28;20491;-77
2021/12/05 14:54:00;;;;;;;7.47;4.00;;;5.40;99.90;;;;;;5073810;28;20040;-77
2021/12/05 14:56:31;;;;;;;6.30;4.00;;;5.40;99.90;;;;;;5073734;28;20489;-78
2021/12/05 14:59:02;;;;;;;8.60;4.80;;;5.30;99.90;;;;;;5072177;28;20049;-77
2021/12/05 15:01:29;;;;;;;9.57;4.70;;;5.30;99.90;;;;;;5073958;28;20398;-76
2021/12/05 15:03:55;;;;;;;8.52;5.10;;;5.50;99.90;;;;;;5072527;28;20044;-76
2021/12/05 15:06:29;;;;;;;8.10;5.13;;;5.30;99.90;;;;;;5072526;28;20512;-76
2021/12/05 15:08:55;;;;;;;8.38;4.85;;;5.30;99.90;;;;;;5073637;28;20056;-76
2021/12/05 15:11:20;;;;;;;10.05;5.53;;;5.30;99.90;;;;;;5073796;28;20041;-76
2021/12/05 15:13:46;;;;;;;10.30;4.93;;;5.30;99.90;;;;;;5074121;28;20540;-76
2021/12/05 15:16:12;;;;;;;10.07;5.15;;;5.30;99.90;;;;;;5072836;28;20052;-75
2021/12/05 15:18:39;;;;;;;9.95;4.88;;;5.30;99.90;;;;;;5074149;28;20051;-76
2021/12/05 15:21:05;;;;;;;10.52;5.28;;;5.30;99.90;;;;;;5055579;28;20044;-76
2021/12/05 15:23:34;;;;;;;9.00;5.72;;;5.30;99.90;;;;;;5055773;28;20074;-76
2021/12/05 15:26:02;;;;;;;10.70;4.70;;;5.30;99.90;;;;;;5072910;28;20123;-76
2021/12/05 15:28:27;;;;;;;10.30;5.63;;;5.20;99.90;;;;;;5072440;28;20101;-75
2021/12/05 15:30:53;;;;;;;10.63;5.65;;;5.20;99.90;;;;;;5073291;28;20119;-77
2021/12/05 15:33:24;;;;;;;10.45;6.40;;;5.20;99.90;;;;;;5072870;28;20044;-75
2021/12/05 15:35:52;;;;;;;10.30;5.80;;;5.20;99.90;;;;;;5072720;28;20052;-76
2021/12/05 15:38:21;;;;;;;11.05;6.07;;;5.20;99.90;;;;;;5073880;28;20390;-76
2021/12/05 15:40:48;;;;;;;11.93;6.90;;;5.20;99.90;;;;;;5073816;28;20039;-76
2021/12/05 15:43:18;;;;;;;10.02;6.43;;;5.20;99.90;;;;;;5073299;28;20055;-76
2021/12/05 15:45:46;;;;;;;11.60;6.25;;;5.20;99.90;;;;;;5073274;28;20056;-76
2021/12/05 15:48:28;;;;;;;14.00;7.60;;;5.20;99.90;;;;;;5073261;28;20171;-76
2021/12/05 15:50:54;;;;;;;12.63;6.93;;;5.10;99.90;;;;;;5073624;28;20365;-79
2021/12/05 15:53:22;;;;;;;13.18;6.38;;;5.10;99.90;;;;;;5073032;28;20421;-76
2021/12/05 15:55:52;;;;;;;12.50;6.80;;;5.20;99.90;;;;;;5073191;28;20110;-75
2021/12/05 15:58:31;;;;;;;13.80;6.80;;;5.10;99.90;;;;;;5071602;28;20076;-76
2021/12/05 16:01:14;;;;;;;12.57;5.85;;;5.10;99.90;;;;;;5073323;28;20083;-76
2021/12/05 16:03:47;;;;;;;11.45;6.90;;;5.10;99.90;;;;;;5071956;28;20048;-75
2021/12/05 16:06:15;;;;;;;12.75;6.60;;;5.10;99.90;;;;;;5073711;28;20341;-76
2021/12/05 16:08:43;;;;;;;14.48;6.95;;;5.00;99.90;;;;;;5073268;28;20135;-77
2021/12/05 16:11:17;;;;;;;12.65;7.07;;;5.00;99.90;;;;;;5076523;28;20408;-76
2021/12/05 16:13:45;;;;;;;13.35;7.25;;;5.00;99.90;;;;;;5074467;28;20041;-77
2021/12/05 16:16:15;;;;;;;12.60;7.28;;;5.00;99.90;;;;;;5073071;28;20044;-77
2021/12/05 16:18:43;;;;;;;13.48;7.43;;;5.00;99.90;;;;;;5072310;28;20048;-77
2021/12/05 16:21:27;;;;;;;13.93;7.22;;;5.00;99.90;;;;;;5072936;28;20431;-76
2021/12/05 16:24:03;;;;;;;12.95;7.90;;;5.00;99.90;;;;;;5072886;28;20048;-76
2021/12/05 16:26:29;;;;;;;;;;;5.00;99.90;;;;;;5073395;28;20086;-75
2021/12/05 16:29:00;;;;;;;13.88;7.40;;;5.10;99.90;;;;;;5072877;28;19920;-74
2021/12/05 16:31:38;;;;;;;21.20;9.00;;;5.00;99.90;;;;;;5073115;28;20045;-76
2021/12/05 16:34:17;;;;;;;15.75;7.88;;;5.00;99.90;;;;;;5073478;28;20044;-79
2021/12/05 16:36:53;;;;;;;11.23;7.55;;;5.00;99.90;;;;;;5072144;28;20037;-79
2021/12/05 16:39:34;;;;;;;15.25;8.23;;;5.00;99.90;;;;;;5073174;28;20086;-80
2021/12/05 16:42:22;;;;;;;16.90;9.55;;;5.00;99.90;;;;;;5076605;28;20047;-80
2021/12/05 16:44:51;;;;;;;15.48;8.80;;;5.00;99.90;;;;;;5074531;28;20413;-78
2021/12/05 16:47:20;;;;;;;18.95;10.32;;;5.30;99.90;;;;;;5075308;28;20044;-78
2021/12/05 16:49:49;;;;;;;14.55;9.60;;;5.00;99.90;;;;;;5075447;28;20117;-78
2021/12/05 16:52:24;;;;;;;15.77;7.57;;;5.00;99.90;;;;;;5058289;28;20040;-77
2021/12/05 16:54:52;;;;;;;11.88;7.22;;;5.00;99.90;;;;;;5076884;28;20048;-80
2021/12/05 16:57:28;;;;;;;14.05;7.85;;;5.00;99.90;;;;;;5058172;28;20519;-80
2021/12/05 16:59:59;;;;;;;12.80;6.68;;;5.00;99.90;;;;;;5074839;28;20136;-80
2021/12/05 17:02:40;;;;;;;10.52;6.55;;;5.00;99.90;;;;;;5075987;28;20036;-80
2021/12/05 17:05:16;;;;;;;13.05;6.70;;;4.90;99.90;;;;;;5075999;28;20053;-80
2021/12/05 17:10:38;;;;;;;12.15;7.05;;;4.90;99.90;;;;;;5075429;28;20044;-80
2021/12/05 17:13:32;;;;;;;15.52;7.97;;;4.90;99.90;;;;;;5076733;28;20127;-80
2021/12/05 17:16:00;;;;;;;14.48;7.78;;;4.90;99.90;;;;;;5076012;28;20131;-80
2021/12/05 17:18:35;;;;;;;14.50;7.82;;;5.00;99.90;;;;;;5058032;28;20084;-80
2021/12/05 17:21:07;;;;;;;15.73;8.38;;;5.00;99.90;;;;;;5058025;28;20044;-77
2021/12/05 17:23:41;;;;;;;16.23;8.70;;;4.90;99.90;;;;;;5075935;28;20473;-77
2021/12/05 17:26:20;;;;;;;17.83;9.50;;;4.90;99.90;;;;;;5076428;28;20373;-79
2021/12/05 17:29:04;;;;;;;18.92;11.10;;;4.90;99.90;;;;;;5075357;28;20047;-79
2021/12/05 17:31:39;;;;;;;18.05;9.80;;;4.90;99.90;;;;;;5074297;28;20040;-78
2021/12/05 17:34:35;;;;;;;16.85;11.88;;;4.90;99.90;;;;;;5076051;28;20052;-79
2021/12/05 17:37:14;;;;;;;17.88;10.43;;;4.90;99.90;;;;;;5073105;28;20056;-78
2021/12/05 17:39:43;;;;;;;18.10;11.18;;;5.00;99.90;;;;;;5075273;28;20070;-78
2021/12/05 17:42:13;;;;;;;30.90;20.27;;;4.80;99.90;;;;;;5075211;28;20037;-77
2021/12/05 17:44:40;;;;;;;19.33;12.07;;;4.80;99.90;;;;;;5074234;28;20084;-78
2021/12/05 17:47:08;;;;;;;19.40;10.32;;;4.80;99.90;;;;;;5075129;28;20045;-77
2021/12/05 17:49:36;;;;;;;22.30;11.18;;;4.80;99.90;;;;;;5073839;28;20154;-78
2021/12/05 17:52:04;;;;;;;22.10;13.77;;;4.80;99.90;;;;;;5074553;28;20044;-78
2021/12/05 17:54:38;;;;;;;24.38;14.35;;;4.80;99.90;;;;;;5073741;28;20048;-77
2021/12/05 17:57:10;;;;;;;25.30;13.90;;;4.80;99.90;;;;;;5075497;28;20050;-77
2021/12/05 17:59:49;;;;;;;23.90;13.73;;;4.80;99.90;;;;;;5074315;28;20060;-78
2021/12/05 18:03:02;;;;;;;28.35;12.95;;;4.80;99.90;;;;;;5073765;28;20534;-78
2021/12/05 18:05:28;;;;;;;28.27;13.55;;;4.80;99.90;;;;;;5071497;28;20049;-79
2021/12/05 18:07:57;;;;;;;32.10;14.48;;;4.70;99.90;;;;;;5075342;28;20082;-79
2021/12/05 18:10:26;;;;;;;27.35;14.02;;;4.70;99.90;;;;;;5073917;28;20060;-77
2021/12/05 18:12:57;;;;;;;32.58;15.48;;;4.70;99.90;;;;;;5074579;28;20082;-77
2021/12/05 18:15:28;;;;;;;31.15;16.80;;;4.70;99.90;;;;;;5073855;28;20094;-78
2021/12/05 18:17:56;;;;;;;38.95;17.17;;;4.70;99.90;;;;;;5074484;28;20058;-78
2021/12/05 18:20:25;;;;;;;208.68;98.28;;;4.70;99.90;;;;;;5074890;28;20048;-78
2021/12/05 18:22:57;;;;;;;156.57;85.80;;;4.80;99.90;;;;;;5074347;28;20433;-76
2021/12/05 18:25:23;;;;;;;112.97;63.97;;;4.70;99.90;;;;;;5074275;28;20502;-78
2021/12/05 18:27:50;;;;;;;36.95;20.55;;;4.70;99.90;;;;;;5073394;28;20429;-76